createdAt,value
2022-08-09T00:00:19.585Z,2.77
2022-08-09T00:02:49.404Z,2.90
2022-08-09T00:06:16.162Z,2.60
2022-08-09T00:08:31.361Z,2.67
2022-08-09T00:11:05.543Z,2.80
2022-08-09T00:13:38.453Z,2.43
2022-08-09T00:16:12.796Z,2.93
2022-08-09T00:18:42.572Z,2.93
2022-08-09T00:21:12.141Z,3.03
2022-08-09T00:23:56.143Z,2.80
2022-08-09T00:26:33.092Z,2.77
2022-08-09T00:29:12.479Z,2.50
2022-08-09T00:31:58.749Z,3.07
2022-08-09T00:34:33.443Z,2.90
2022-08-09T00:37:03.112Z,2.80
2022-08-09T00:40:01.962Z,2.70
2022-08-09T00:44:16.717Z,2.60
2022-08-09T00:45:15.839Z,2.90
2022-08-09T00:47:47.143Z,3.03
2022-08-09T00:50:17.391Z,2.97
2022-08-09T00:52:47.343Z,2.80
2022-08-09T00:56:03.179Z,2.80
2022-08-09T00:58:14.810Z,3.10
2022-08-09T01:00:55.173Z,3.23
2022-08-09T01:03:45.510Z,2.87
2022-08-09T01:06:25.592Z,3.60
2022-08-09T01:09:23.269Z,3.10
2022-08-09T01:12:01.632Z,3.23
2022-08-09T01:14:37.242Z,3.07
2022-08-09T01:17:18.013Z,3.30
2022-08-09T01:20:02.998Z,3.00
2022-08-09T01:23:04.082Z,3.17
2022-08-09T01:26:06.984Z,2.80
2022-08-09T01:28:40.367Z,3.13
2022-08-09T01:32:30.714Z,3.30
2022-08-09T01:34:06.169Z,3.00
2022-08-09T01:36:40.438Z,3.00
2022-08-09T01:39:11.719Z,3.27
2022-08-09T01:41:53.495Z,3.30
2022-08-09T01:44:32.827Z,3.17
2022-08-09T01:47:05.930Z,3.47
2022-08-09T01:49:42.971Z,3.17
2022-08-09T01:52:23.083Z,3.20
2022-08-09T01:54:59.827Z,3.30
2022-08-09T01:57:39.840Z,2.77
2022-08-09T02:00:35.501Z,3.13
2022-08-09T02:03:07.894Z,2.83
2022-08-09T02:06:04.109Z,3.03
2022-08-09T02:08:57.425Z,3.40
2022-08-09T02:11:42.113Z,3.33
2022-08-09T02:14:15.936Z,3.13
2022-08-09T02:17:00.043Z,3.00
2022-08-09T02:20:26.552Z,3.00
2022-08-09T02:23:08.574Z,3.27
2022-08-09T02:25:49.702Z,3.40
2022-08-09T02:28:27.528Z,3.50
2022-08-09T02:31:02.584Z,3.40
2022-08-09T02:34:06.629Z,3.67
2022-08-09T02:36:34.101Z,3.60
2022-08-09T02:39:14.480Z,3.60
2022-08-09T02:41:55.434Z,3.60
2022-08-09T02:44:33.120Z,3.57
2022-08-09T02:47:10.241Z,3.57
2022-08-09T02:49:47.085Z,4.00
2022-08-09T02:52:36.553Z,3.53
2022-08-09T02:55:20.315Z,3.43
2022-08-09T02:58:00.466Z,3.50
2022-08-09T03:00:57.906Z,3.70
2022-08-09T03:04:12.281Z,3.77
2022-08-09T03:06:21.544Z,4.33
2022-08-09T03:08:55.128Z,3.70
2022-08-09T03:11:29.943Z,3.87
2022-08-09T03:14:20.240Z,3.90
2022-08-09T03:16:58.257Z,3.80
2022-08-09T03:19:59.617Z,3.93
2022-08-09T03:22:25.549Z,4.20
2022-08-09T03:25:06.749Z,5.23
2022-08-09T03:27:52.043Z,5.00
2022-08-09T03:30:29.207Z,4.93
2022-08-09T03:33:02.067Z,5.50
2022-08-09T03:36:13.569Z,4.70
2022-08-09T03:38:33.739Z,4.70
2022-08-09T03:41:03.115Z,5.33
2022-08-09T03:43:33.639Z,4.63
2022-08-09T03:46:19.641Z,4.83
2022-08-09T03:48:59.388Z,5.00
2022-08-09T03:51:55.587Z,4.37
2022-08-09T03:54:31.831Z,3.97
2022-08-09T03:57:18.175Z,3.70
2022-08-09T03:59:55.036Z,4.43
2022-08-09T04:02:29.796Z,4.60
2022-08-09T04:05:01.225Z,4.53
2022-08-09T04:07:52.461Z,4.30
2022-08-09T04:10:29.400Z,4.40
2022-08-09T04:13:04.472Z,3.97
2022-08-09T04:16:17.703Z,4.73
2022-08-09T04:18:25.168Z,4.57
2022-08-09T04:20:57.278Z,4.30
2022-08-09T04:23:26.334Z,4.90
2022-08-09T04:25:57.822Z,3.93
2022-08-09T04:28:31.869Z,4.63
2022-08-09T04:31:09.011Z,3.93
2022-08-09T04:33:52.527Z,3.67
2022-08-09T04:36:25.518Z,3.60
2022-08-09T04:38:59.193Z,3.97
2022-08-09T04:41:33.345Z,3.90
2022-08-09T04:44:06.241Z,3.90
2022-08-09T04:46:57.473Z,3.70
2022-08-09T04:49:52.883Z,3.77
2022-08-09T04:52:26.528Z,4.70
2022-08-09T04:54:57.038Z,3.50
2022-08-09T04:57:58.542Z,3.77
2022-08-09T05:00:18.635Z,3.67
2022-08-09T05:02:48.628Z,3.87
2022-08-09T05:05:31.782Z,4.33
2022-08-09T05:08:14.833Z,4.10
2022-08-09T05:10:45.050Z,4.23
2022-08-09T05:13:15.460Z,4.20
2022-08-09T05:15:48.427Z,3.93
2022-08-09T05:18:50.638Z,3.70
2022-08-09T05:21:24.538Z,3.90
2022-08-09T05:24:01.628Z,3.20
2022-08-09T05:26:36.970Z,3.43
2022-08-09T05:29:22.065Z,3.60
2022-08-09T05:31:56.392Z,3.30
2022-08-09T05:34:31.382Z,3.00
2022-08-09T05:37:05.335Z,3.33
2022-08-09T05:39:42.828Z,3.23
2022-08-09T05:42:17.707Z,3.20
2022-08-09T05:45:52.764Z,3.40
2022-08-09T05:48:22.056Z,2.97
2022-08-09T05:51:42.963Z,3.90
2022-08-09T05:54:15.443Z,3.43
2022-08-09T05:56:55.227Z,2.85
2022-08-09T05:59:25.319Z,3.67
2022-08-09T06:02:16.861Z,3.47
2022-08-09T06:04:48.083Z,3.70
2022-08-09T06:07:30.604Z,3.58
2022-08-09T06:10:02.710Z,2.67
2022-08-09T06:12:32.909Z,2.63
2022-08-09T06:15:05.865Z,3.17
2022-08-09T06:17:40.880Z,2.88
2022-08-09T06:20:12.255Z,2.92
2022-08-09T06:23:08.214Z,3.10
2022-08-09T06:26:01.457Z,2.55
2022-08-09T06:28:32.027Z,2.97
2022-08-09T06:31:02.395Z,2.60
2022-08-09T06:33:40.467Z,2.75
2022-08-09T06:36:13.836Z,2.70
2022-08-09T06:38:50.439Z,2.92
2022-08-09T06:41:20.444Z,2.53
2022-08-09T06:43:51.226Z,2.70
2022-08-09T06:46:40.285Z,2.40
2022-08-09T06:49:11.957Z,2.55
2022-08-09T06:51:46.917Z,2.78
2022-08-09T06:54:17.384Z,2.65
2022-08-09T06:56:49.239Z,2.75
2022-08-09T07:00:51.425Z,3.83
2022-08-09T07:02:07.431Z,2.72
2022-08-09T07:04:39.630Z,2.40
2022-08-09T07:07:12.053Z,2.75
2022-08-09T07:10:02.468Z,2.15
2022-08-09T07:13:27.577Z,3.60
2022-08-09T07:16:42.045Z,2.92
2022-08-09T07:18:47.576Z,2.92
2022-08-09T07:21:21.389Z,2.47
2022-08-09T07:23:57.971Z,2.15
2022-08-09T07:26:29.993Z,2.08
2022-08-09T07:29:08.455Z,2.03
2022-08-09T07:31:45.485Z,2.25
2022-08-09T07:34:20.119Z,1.90
2022-08-09T07:36:52.822Z,2.50
2022-08-09T07:39:42.523Z,2.60
2022-08-09T07:42:12.164Z,2.97
2022-08-09T07:44:51.890Z,2.63
2022-08-09T07:47:24.236Z,1.90
2022-08-09T07:50:08.105Z,1.90
2022-08-09T07:52:42.909Z,1.80
2022-08-09T07:55:12.513Z,1.85
2022-08-09T07:57:47.239Z,2.05
2022-08-09T08:00:20.825Z,2.03
2022-08-09T08:03:08.397Z,1.80
2022-08-09T08:05:54.303Z,1.92
2022-08-09T08:09:00.003Z,1.75
2022-08-09T08:12:11.112Z,1.83
2022-08-09T08:14:21.075Z,1.88
2022-08-09T08:17:07.328Z,1.83
2022-08-09T08:19:42.370Z,1.70
2022-08-09T08:22:14.248Z,1.65
2022-08-09T08:24:50.868Z,2.50
2022-08-09T08:27:20.255Z,1.95
2022-08-09T08:29:56.830Z,1.80
2022-08-09T08:32:29.334Z,1.60
2022-08-09T08:35:13.423Z,2.67
2022-08-09T08:37:59.437Z,1.40
2022-08-09T08:40:31.531Z,1.73
2022-08-09T08:43:01.706Z,1.50
2022-08-09T08:45:38.156Z,1.45
2022-08-09T08:48:20.471Z,1.50
2022-08-09T08:50:56.987Z,1.70
2022-08-09T08:53:32.099Z,1.30
2022-08-09T08:56:16.754Z,1.40
2022-08-09T08:58:57.641Z,1.58
2022-08-09T09:01:44.753Z,1.42
2022-08-09T09:04:27.126Z,2.05
2022-08-09T09:06:59.724Z,2.10
2022-08-09T09:09:58.114Z,1.58
2022-08-09T09:12:23.466Z,1.65
2022-08-09T09:15:01.406Z,2.00
2022-08-09T09:17:49.284Z,1.92
2022-08-09T09:20:20.650Z,1.38
2022-08-09T09:22:55.533Z,1.60
2022-08-09T09:26:01.041Z,1.83
2022-08-09T09:29:01.992Z,1.30
2022-08-09T09:32:04.389Z,1.65
2022-08-09T09:34:18.501Z,1.73
2022-08-09T09:36:54.331Z,1.70
2022-08-09T09:39:25.780Z,1.88
2022-08-09T09:42:30.934Z,1.55
2022-08-09T09:45:03.993Z,1.40
2022-08-09T09:47:38.006Z,1.40
2022-08-09T09:50:23.173Z,1.73
2022-08-09T09:52:56.424Z,2.03
2022-08-09T09:55:33.002Z,1.50
2022-08-09T09:58:18.268Z,2.83
2022-08-09T10:00:54.758Z,2.03
2022-08-09T10:03:56.378Z,1.20
2022-08-09T10:06:28.543Z,1.85
2022-08-09T10:09:22.929Z,1.45
2022-08-09T10:12:14.831Z,2.05
2022-08-09T10:14:53.331Z,1.15
2022-08-09T10:17:50.945Z,1.20
2022-08-09T10:20:36.158Z,1.20
2022-08-09T10:23:23.826Z,1.45
2022-08-09T10:26:07.627Z,1.30
2022-08-09T10:28:48.851Z,1.30
2022-08-09T10:32:35.595Z,1.20
2022-08-09T10:34:33.930Z,1.40
2022-08-09T10:37:09.579Z,1.30
2022-08-09T10:39:49.320Z,1.23
2022-08-09T10:42:21.575Z,1.35
2022-08-09T10:45:01.839Z,1.60
2022-08-09T10:48:29.637Z,1.13
2022-08-09T10:51:13.746Z,1.30
2022-08-09T10:53:57.663Z,1.15
2022-08-09T10:56:29.726Z,1.13
2022-08-09T10:59:04.013Z,1.23
2022-08-09T11:03:15.717Z,1.67
2022-08-09T11:04:33.155Z,1.98
2022-08-09T11:07:57.533Z,1.85
2022-08-09T11:11:00.854Z,1.48
2022-08-09T11:13:53.663Z,1.33
2022-08-09T11:16:41.938Z,1.30
2022-08-09T11:19:11.527Z,1.25
2022-08-09T11:22:10.540Z,1.20
2022-08-09T11:25:13.004Z,1.45
2022-08-09T11:28:02.923Z,1.42
2022-08-09T11:30:47.940Z,1.42
2022-08-09T11:33:40.438Z,1.30
2022-08-09T11:36:30.430Z,1.55
2022-08-09T11:39:06.938Z,1.80
2022-08-09T11:41:42.450Z,1.27
2022-08-09T11:44:14.145Z,1.30
2022-08-09T11:47:01.465Z,1.30
2022-08-09T11:50:54.981Z,1.27
2022-08-09T11:53:58.874Z,1.48
2022-08-09T11:56:41.674Z,1.20
2022-08-09T11:59:30.457Z,1.30
2022-08-09T12:02:18.382Z,1.20
2022-08-09T12:04:58.817Z,1.30
2022-08-09T12:07:41.467Z,1.30
2022-08-09T12:10:37.997Z,1.38
2022-08-09T12:13:03.814Z,1.20
2022-08-09T12:15:53.109Z,1.70
2022-08-09T12:18:29.901Z,1.40
2022-08-09T12:21:02.742Z,1.30
2022-08-09T12:23:58.709Z,1.30
2022-08-09T12:26:25.873Z,2.03
2022-08-09T12:29:23.813Z,1.38
2022-08-09T12:31:58.953Z,1.25
2022-08-09T12:34:38.320Z,1.23
2022-08-09T12:37:23.818Z,1.42
2022-08-09T12:40:08.518Z,1.20
2022-08-09T12:42:38.482Z,1.10
2022-08-09T12:45:32.212Z,1.65
2022-08-09T12:48:05.060Z,2.53
2022-08-09T12:50:36.343Z,1.10
2022-08-09T12:53:08.603Z,1.05
2022-08-09T12:56:16.450Z,1.02
2022-08-09T12:58:28.981Z,1.35
2022-08-09T13:00:59.311Z,1.40
2022-08-09T13:03:54.035Z,1.20
2022-08-09T13:06:34.883Z,1.48
2022-08-09T13:09:12.678Z,1.08
2022-08-09T13:11:44.861Z,1.40
2022-08-09T13:14:40.854Z,1.33
2022-08-09T13:17:10.057Z,2.65
2022-08-09T13:20:07.485Z,1.38
2022-08-09T13:22:36.963Z,1.33
2022-08-09T13:25:21.832Z,1.27
2022-08-09T13:27:55.902Z,1.50
2022-08-09T13:32:12.203Z,1.42
2022-08-09T13:33:52.477Z,2.15
2022-08-09T13:36:40.537Z,2.20
2022-08-09T13:41:17.785Z,2.15
2022-08-09T13:42:12.281Z,1.50
2022-08-09T13:44:46.101Z,1.75
2022-08-09T13:47:31.016Z,3.30
2022-08-09T13:50:12.475Z,3.40
2022-08-09T13:52:49.828Z,1.90
2022-08-09T13:55:21.020Z,1.13
2022-08-09T13:57:56.113Z,1.83
2022-08-09T14:00:29.489Z,2.05
2022-08-09T14:04:02.403Z,1.50
2022-08-09T14:06:00.333Z,1.55
2022-08-09T14:08:33.311Z,1.40
2022-08-09T14:11:03.320Z,1.90
2022-08-09T14:14:22.449Z,1.55
2022-08-09T14:16:29.191Z,1.40
2022-08-09T14:18:59.544Z,1.20
2022-08-09T14:21:31.867Z,1.50
2022-08-09T14:24:10.486Z,1.60
2022-08-09T14:26:53.611Z,2.00
2022-08-09T14:30:03.917Z,1.52
2022-08-09T14:32:16.220Z,1.33
2022-08-09T14:34:55.775Z,1.38
2022-08-09T14:37:28.259Z,1.30
2022-08-09T14:39:59.320Z,1.33
2022-08-09T14:42:40.629Z,2.08
2022-08-09T14:46:39.402Z,1.42
2022-08-09T14:48:03.497Z,2.50
2022-08-09T14:50:38.286Z,1.50
2022-08-09T14:53:14.267Z,1.35
2022-08-09T14:55:47.890Z,2.00
2022-08-09T14:58:22.430Z,1.38
2022-08-09T15:00:52.631Z,1.50
2022-08-09T15:03:27.327Z,1.30
2022-08-09T15:06:00.150Z,1.40
2022-08-09T15:08:56.612Z,1.48
2022-08-09T15:11:28.659Z,1.50
2022-08-09T15:14:04.358Z,2.33
2022-08-09T15:16:34.959Z,1.35
2022-08-09T15:19:15.889Z,3.55
2022-08-09T15:21:56.065Z,1.50
2022-08-09T15:24:31.986Z,1.40
2022-08-09T15:27:03.210Z,1.77
2022-08-09T15:30:57.008Z,1.60
2022-08-09T15:32:29.773Z,1.75
2022-08-09T15:35:01.543Z,2.63
2022-08-09T15:37:57.388Z,1.20
2022-08-09T15:40:32.449Z,1.88
2022-08-09T15:43:05.455Z,1.35
2022-08-09T15:45:51.726Z,1.70
2022-08-09T15:48:28.703Z,1.70
2022-08-09T15:51:00.564Z,1.23
2022-08-09T15:54:04.919Z,1.92
2022-08-09T15:56:28.752Z,2.47
2022-08-09T15:59:02.447Z,1.42
2022-08-09T16:01:35.453Z,1.95
2022-08-09T16:04:12.058Z,1.33
2022-08-09T16:06:44.760Z,1.35
2022-08-09T16:09:32.562Z,1.63
2022-08-09T16:12:11.798Z,1.52
2022-08-09T16:14:45.998Z,1.45
2022-08-09T16:17:16.914Z,1.40
2022-08-09T16:20:03.826Z,1.83
2022-08-09T16:22:37.092Z,1.70
2022-08-09T16:25:13.741Z,1.88
2022-08-09T16:27:47.861Z,1.27
2022-08-09T16:30:28.568Z,1.50
2022-08-09T16:33:11.890Z,1.35
2022-08-09T16:35:56.954Z,1.50
2022-08-09T16:38:29.678Z,2.65
2022-08-09T16:40:59.433Z,2.03
2022-08-09T16:43:33.348Z,1.83
2022-08-09T16:46:12.496Z,1.67
2022-08-09T16:48:54.750Z,1.38
2022-08-09T16:51:28.595Z,1.60
2022-08-09T16:54:25.417Z,1.60
2022-08-09T16:56:50.165Z,1.65
2022-08-09T16:59:19.903Z,1.25
2022-08-09T17:01:53.058Z,1.67
2022-08-09T17:04:25.761Z,1.48
2022-08-09T17:08:41.753Z,1.67
2022-08-09T17:09:48.321Z,1.95
2022-08-09T17:12:20.395Z,1.40
2022-08-09T17:14:55.057Z,1.73
2022-08-09T17:17:30.745Z,1.73
2022-08-09T17:20:32.387Z,1.90
2022-08-09T17:23:10.478Z,1.58
2022-08-09T17:25:44.631Z,1.63
2022-08-09T17:28:22.690Z,1.80
2022-08-09T17:30:52.423Z,2.15
2022-08-09T17:33:23.327Z,2.13
2022-08-09T17:35:53.092Z,2.22
2022-08-09T17:38:32.553Z,2.83
2022-08-09T17:41:06.738Z,4.70
2022-08-09T17:43:37.287Z,5.63
2022-08-09T17:46:09.191Z,4.45
2022-08-09T17:48:51.894Z,8.70
2022-08-09T17:51:23.278Z,5.80
2022-08-09T17:53:55.696Z,5.70
2022-08-09T17:56:29.220Z,3.97
2022-08-09T17:59:09.121Z,4.18
2022-08-09T18:02:07.487Z,3.53
2022-08-09T18:04:34.614Z,3.20
2022-08-09T18:07:07.507Z,3.13
2022-08-09T18:09:41.386Z,2.65
2022-08-09T18:12:17.375Z,2.25
2022-08-09T18:14:54.920Z,1.63
2022-08-09T18:18:03.041Z,2.50
2022-08-09T18:20:54.059Z,2.35
2022-08-09T18:24:11.947Z,2.22
2022-08-09T18:26:16.798Z,2.83
2022-08-09T18:30:40.712Z,1.80
2022-08-09T18:31:55.254Z,1.88
2022-08-09T18:34:38.075Z,2.40
2022-08-09T18:37:47.829Z,2.72
2022-08-09T18:40:01.947Z,3.30
2022-08-09T18:42:32.050Z,5.18
2022-08-09T18:45:08.560Z,5.38
2022-08-09T18:47:42.482Z,3.08
2022-08-09T18:50:13.380Z,2.17
2022-08-09T18:52:50.957Z,2.22
2022-08-09T18:55:45.530Z,2.50
2022-08-09T18:58:13.181Z,3.85
2022-08-09T19:01:02.437Z,2.33
2022-08-09T19:03:54.673Z,2.42
2022-08-09T19:06:22.196Z,2.50
2022-08-09T19:09:02.762Z,2.60
2022-08-09T19:11:37.975Z,3.30
2022-08-09T19:14:09.969Z,2.97
2022-08-09T19:16:50.026Z,2.83
2022-08-09T19:19:25.846Z,3.92
2022-08-09T19:22:06.295Z,3.60
2022-08-09T19:25:09.211Z,3.67
2022-08-09T19:27:33.215Z,3.90
2022-08-09T19:30:25.304Z,4.18
2022-08-09T19:33:00.587Z,4.20
2022-08-09T19:35:56.858Z,4.18
2022-08-09T19:38:22.073Z,3.88
2022-08-09T19:40:55.896Z,4.05
2022-08-09T19:44:00.275Z,4.32
2022-08-09T19:46:35.373Z,4.25
2022-08-09T19:50:07.638Z,4.03
2022-08-09T19:52:12.219Z,3.93
2022-08-09T19:54:43.699Z,5.10
2022-08-09T19:57:16.339Z,5.00
2022-08-09T20:00:06.917Z,4.80
2022-08-09T20:04:26.332Z,5.93
2022-08-09T20:05:46.274Z,4.38
2022-08-09T20:08:33.229Z,6.65
2022-08-09T20:11:07.637Z,4.78
2022-08-09T20:13:42.011Z,4.82
2022-08-09T20:16:33.879Z,4.90
2022-08-09T20:19:47.735Z,4.72
2022-08-09T20:22:04.806Z,4.60
2022-08-09T20:24:42.462Z,4.65
2022-08-09T20:27:14.080Z,4.80
2022-08-09T20:29:51.430Z,3.90
2022-08-09T20:32:32.975Z,5.40
2022-08-09T20:35:04.283Z,4.33
2022-08-09T20:37:37.805Z,6.97
2022-08-09T20:40:26.855Z,5.00
2022-08-09T20:43:19.215Z,4.60
2022-08-09T20:46:00.753Z,4.63
2022-08-09T20:48:33.177Z,4.83
2022-08-09T20:51:03.477Z,4.90
2022-08-09T20:53:36.799Z,4.67
2022-08-09T20:56:21.046Z,5.03
2022-08-09T20:58:58.894Z,4.40
2022-08-09T21:01:50.379Z,4.43
2022-08-09T21:05:53.445Z,5.00
2022-08-09T21:07:13.782Z,4.40
2022-08-09T21:09:56.325Z,4.80
2022-08-09T21:15:23.767Z,4.70
2022-08-09T21:18:21.806Z,4.13
2022-08-09T21:20:57.295Z,4.40
2022-08-09T21:23:47.856Z,4.07
2022-08-09T21:26:21.861Z,3.80
2022-08-09T21:28:55.646Z,3.90
2022-08-09T21:31:48.881Z,3.40
2022-08-09T21:34:28.672Z,3.53
2022-08-09T21:37:03.958Z,3.83
2022-08-09T21:39:51.248Z,3.50
2022-08-09T21:42:28.442Z,4.07
2022-08-09T21:44:59.373Z,3.47
2022-08-09T21:47:32.069Z,5.10
2022-08-09T21:50:05.929Z,4.27
2022-08-09T21:52:36.829Z,3.40
2022-08-09T21:55:09.405Z,3.70
2022-08-09T21:57:59.974Z,3.70
2022-08-09T22:00:33.260Z,3.80
2022-08-09T22:03:19.390Z,3.57
2022-08-09T22:05:58.397Z,3.40
2022-08-09T22:08:29.353Z,3.77
2022-08-09T22:12:09.336Z,6.03
2022-08-09T22:13:56.970Z,3.80
2022-08-09T22:16:28.461Z,3.43
2022-08-09T22:19:00.272Z,3.90
2022-08-09T22:21:50.464Z,3.93
2022-08-09T22:24:30.424Z,3.67
2022-08-09T22:27:00.631Z,4.03
2022-08-09T22:29:48.538Z,3.80
2022-08-09T22:32:30.055Z,4.30
2022-08-09T22:35:06.316Z,3.40
2022-08-09T22:37:40.295Z,3.63
2022-08-09T22:40:18.282Z,3.93
2022-08-09T22:42:50.299Z,3.93
2022-08-09T22:48:18.624Z,3.93
2022-08-09T22:48:20.199Z,4.07
2022-08-09T22:50:58.528Z,3.93
2022-08-09T22:53:44.416Z,4.10
2022-08-09T22:56:33.209Z,3.97
2022-08-09T22:59:57.246Z,3.50
2022-08-09T23:01:55.175Z,4.00
2022-08-09T23:04:25.555Z,3.73
2022-08-09T23:07:14.088Z,4.00
2022-08-09T23:09:47.205Z,4.00
2022-08-09T23:12:18.111Z,4.60
2022-08-09T23:14:47.344Z,3.73
2022-08-09T23:17:23.325Z,4.00
2022-08-09T23:20:07.268Z,4.00
2022-08-09T23:22:37.271Z,3.63
2022-08-09T23:25:11.427Z,3.90
2022-08-09T23:28:01.894Z,4.40
2022-08-09T23:30:30.786Z,4.13
2022-08-09T23:33:00.782Z,3.73
2022-08-09T23:35:30.624Z,4.23
2022-08-09T23:38:20.714Z,4.10
2022-08-09T23:40:55.955Z,4.10
2022-08-09T23:43:25.361Z,4.00
2022-08-09T23:45:56.502Z,4.80
2022-08-09T23:48:27.361Z,4.20
2022-08-09T23:51:00.878Z,4.37
2022-08-09T23:53:37.659Z,4.63
2022-08-09T23:56:10.511Z,4.63
2022-08-09T23:58:43.444Z,5.17
